Reber, New York
Current Conditions -  °F | °C
As of 11:14 AM on Thursday 30 Oct 2014 (Local Time) from KBTV Reporting Station
Broken Clouds Broken Clouds  
Wind Chill: 44°   Ceiling: 3000
Heat Index: 48°   Visibility: 10mi
Dew Point: 35°   Wind: 9mph
Humidity: 61%   Direction: 340°NNW
Pressure: 29.97"   Gusts: NA
Location:  44.3585°N, 73.4161°W
Report Text: KBTV 301514Z 34008KT 10SM BKN030 BKN039 09/02 A2997 RMK AO2 CLDS BASES OBSCG MTNS E-S T00890017
Loading
Personal Weather Stations






























Interactive Weather Map
Tropical Storm Tracking
New forecast layout! Learn more

10-Day Weather Forecast

Advertisements
Track Severe Weather on mobile